sensor_id;sensor_type;location;lat;lon;timestamp;temperature;humidity
37984;DHT22;64625;50.882;4.376;2022-12-07T00:01:43;7.30;99.90
37984;DHT22;64625;50.882;4.376;2022-12-07T00:04:04;7.20;99.90
37984;DHT22;64625;50.882;4.376;2022-12-07T00:06:51;7.20;99.90
37984;DHT22;64625;50.882;4.376;2022-12-07T00:09:18;7.20;99.90
37984;DHT22;64625;50.882;4.376;2022-12-07T00:11:48;7.10;99.90
37984;DHT22;64625;50.882;4.376;2022-12-07T00:14:16;7.10;99.90
37984;DHT22;64625;50.882;4.376;2022-12-07T00:16:43;7.10;99.90
37984;DHT22;64625;50.882;4.376;2022-12-07T00:19:10;7.10;99.90
37984;DHT22;64625;50.882;4.376;2022-12-07T00:21:36;7.00;99.90
37984;DHT22;64625;50.882;4.376;2022-12-07T00:24:06;7.00;99.90
37984;DHT22;64625;50.882;4.376;2022-12-07T00:26:37;7.00;99.90
37984;DHT22;64625;50.882;4.376;2022-12-07T00:29:06;6.90;99.90
37984;DHT22;64625;50.882;4.376;2022-12-07T00:31:34;6.90;99.90
37984;DHT22;64625;50.882;4.376;2022-12-07T00:34:09;6.90;99.90
37984;DHT22;64625;50.882;4.376;2022-12-07T00:36:37;6.80;99.90
37984;DHT22;64625;50.882;4.376;2022-12-07T00:39:03;6.80;99.90
37984;DHT22;64625;50.882;4.376;2022-12-07T00:41:29;6.80;99.90
37984;DHT22;64625;50.882;4.376;2022-12-07T00:43:56;6.80;99.90
37984;DHT22;64625;50.882;4.376;2022-12-07T00:46:22;6.70;99.90
37984;DHT22;64625;50.882;4.376;2022-12-07T00:48:49;6.70;99.90
37984;DHT22;64625;50.882;4.376;2022-12-07T00:51:16;6.70;99.90
37984;DHT22;64625;50.882;4.376;2022-12-07T00:53:42;6.70;99.90
37984;DHT22;64625;50.882;4.376;2022-12-07T00:56:43;6.70;99.90
37984;DHT22;64625;50.882;4.376;2022-12-07T00:59:03;6.60;99.90
37984;DHT22;64625;50.882;4.376;2022-12-07T01:01:32;6.60;99.90
37984;DHT22;64625;50.882;4.376;2022-12-07T01:03:59;6.60;99.90
37984;DHT22;64625;50.882;4.376;2022-12-07T01:06:26;6.50;99.90
37984;DHT22;64625;50.882;4.376;2022-12-07T01:08:53;6.50;99.90
37984;DHT22;64625;50.882;4.376;2022-12-07T01:11:21;6.50;99.90
37984;DHT22;64625;50.882;4.376;2022-12-07T01:14:00;6.40;99.90
37984;DHT22;64625;50.882;4.376;2022-12-07T01:16:28;6.40;99.90
37984;DHT22;64625;50.882;4.376;2022-12-07T01:18:55;6.40;99.90
37984;DHT22;64625;50.882;4.376;2022-12-07T01:21:27;6.40;99.90
37984;DHT22;64625;50.882;4.376;2022-12-07T01:23:54;6.30;99.90
37984;DHT22;64625;50.882;4.376;2022-12-07T01:26:22;6.30;99.90
37984;DHT22;64625;50.882;4.376;2022-12-07T01:28:49;6.30;99.90
37984;DHT22;64625;50.882;4.376;2022-12-07T01:31:17;6.30;99.90
37984;DHT22;64625;50.882;4.376;2022-12-07T01:33:46;6.30;99.90
37984;DHT22;64625;50.882;4.376;2022-12-07T01:39:05;6.30;99.90
37984;DHT22;64625;50.882;4.376;2022-12-07T01:41:34;6.20;99.90
37984;DHT22;64625;50.882;4.376;2022-12-07T01:44:14;6.30;99.90
37984;DHT22;64625;50.882;4.376;2022-12-07T01:46:42;6.30;99.90
37984;DHT22;64625;50.882;4.376;2022-12-07T01:49:14;6.30;99.90
37984;DHT22;64625;50.882;4.376;2022-12-07T01:51:42;6.30;99.90
37984;DHT22;64625;50.882;4.376;2022-12-07T01:54:10;6.20;99.90
37984;DHT22;64625;50.882;4.376;2022-12-07T01:56:38;6.20;99.90
37984;DHT22;64625;50.882;4.376;2022-12-07T01:59:04;6.20;99.90
37984;DHT22;64625;50.882;4.376;2022-12-07T02:01:30;6.20;99.90
37984;DHT22;64625;50.882;4.376;2022-12-07T02:03:56;6.20;99.90
37984;DHT22;64625;50.882;4.376;2022-12-07T02:06:24;6.20;99.90
37984;DHT22;64625;50.882;4.376;2022-12-07T02:08:51;6.20;99.90
37984;DHT22;64625;50.882;4.376;2022-12-07T02:11:17;6.20;99.90
37984;DHT22;64625;50.882;4.376;2022-12-07T02:13:45;6.20;99.90
37984;DHT22;64625;50.882;4.376;2022-12-07T02:24:48;6.30;99.90
37984;DHT22;64625;50.882;4.376;2022-12-07T02:32:38;6.20;99.90
37984;DHT22;64625;50.882;4.376;2022-12-07T02:37:42;6.30;99.90
37984;DHT22;64625;50.882;4.376;2022-12-07T02:40:29;6.30;99.90
37984;DHT22;64625;50.882;4.376;2022-12-07T02:46:05;6.30;99.90
37984;DHT22;64625;50.882;4.376;2022-12-07T02:48:38;6.30;99.90
37984;DHT22;64625;50.882;4.376;2022-12-07T02:51:04;6.30;99.90
37984;DHT22;64625;50.882;4.376;2022-12-07T02:53:36;6.30;99.90
37984;DHT22;64625;50.882;4.376;2022-12-07T03:04:22;6.20;99.90
37984;DHT22;64625;50.882;4.376;2022-12-07T03:06:56;6.30;99.90
37984;DHT22;64625;50.882;4.376;2022-12-07T03:09:39;6.20;99.90
37984;DHT22;64625;50.882;4.376;2022-12-07T03:12:12;6.20;99.90
37984;DHT22;64625;50.882;4.376;2022-12-07T03:14:55;6.20;99.90
37984;DHT22;64625;50.882;4.376;2022-12-07T03:17:27;6.10;99.90
37984;DHT22;64625;50.882;4.376;2022-12-07T03:19:59;6.10;99.90
37984;DHT22;64625;50.882;4.376;2022-12-07T03:22:30;6.10;99.90
37984;DHT22;64625;50.882;4.376;2022-12-07T03:24:58;6.00;99.90
37984;DHT22;64625;50.882;4.376;2022-12-07T03:27:31;6.00;99.90
37984;DHT22;64625;50.882;4.376;2022-12-07T03:30:17;6.00;99.90
37984;DHT22;64625;50.882;4.376;2022-12-07T03:36:11;6.00;99.90
37984;DHT22;64625;50.882;4.376;2022-12-07T03:38:31;6.00;99.90
37984;DHT22;64625;50.882;4.376;2022-12-07T03:41:11;6.00;99.90
37984;DHT22;64625;50.882;4.376;2022-12-07T03:43:40;5.90;99.90
37984;DHT22;64625;50.882;4.376;2022-12-07T03:49:18;5.90;99.90
37984;DHT22;64625;50.882;4.376;2022-12-07T03:52:08;5.90;99.90
37984;DHT22;64625;50.882;4.376;2022-12-07T03:57:42;5.80;99.90
37984;DHT22;64625;50.882;4.376;2022-12-07T04:00:10;5.80;99.90
37984;DHT22;64625;50.882;4.376;2022-12-07T04:02:37;5.70;99.90
37984;DHT22;64625;50.882;4.376;2022-12-07T04:05:03;5.70;99.90
37984;DHT22;64625;50.882;4.376;2022-12-07T04:07:29;5.70;99.90
37984;DHT22;64625;50.882;4.376;2022-12-07T04:09:54;5.70;99.90
37984;DHT22;64625;50.882;4.376;2022-12-07T04:12:21;5.70;99.90
37984;DHT22;64625;50.882;4.376;2022-12-07T04:14:48;5.70;99.90
37984;DHT22;64625;50.882;4.376;2022-12-07T04:17:14;5.60;99.90
37984;DHT22;64625;50.882;4.376;2022-12-07T04:19:40;5.60;99.90
37984;DHT22;64625;50.882;4.376;2022-12-07T04:22:06;5.60;99.90
37984;DHT22;64625;50.882;4.376;2022-12-07T04:24:33;5.60;99.90
37984;DHT22;64625;50.882;4.376;2022-12-07T04:26:58;5.60;99.90
37984;DHT22;64625;50.882;4.376;2022-12-07T04:29:25;5.60;99.90
37984;DHT22;64625;50.882;4.376;2022-12-07T04:31:51;5.60;99.90
37984;DHT22;64625;50.882;4.376;2022-12-07T04:34:18;5.60;99.90
37984;DHT22;64625;50.882;4.376;2022-12-07T04:36:44;5.60;99.90
37984;DHT22;64625;50.882;4.376;2022-12-07T04:39:25;5.60;99.90
37984;DHT22;64625;50.882;4.376;2022-12-07T04:41:51;5.60;99.90
37984;DHT22;64625;50.882;4.376;2022-12-07T04:44:17;5.60;99.90
37984;DHT22;64625;50.882;4.376;2022-12-07T04:46:44;5.60;99.90
37984;DHT22;64625;50.882;4.376;2022-12-07T04:49:11;5.60;99.90
37984;DHT22;64625;50.882;4.376;2022-12-07T04:51:37;5.60;99.90
37984;DHT22;64625;50.882;4.376;2022-12-07T04:54:03;5.60;99.90
37984;DHT22;64625;50.882;4.376;2022-12-07T04:56:29;5.60;99.90
37984;DHT22;64625;50.882;4.376;2022-12-07T04:58:55;5.60;99.90
37984;DHT22;64625;50.882;4.376;2022-12-07T05:01:24;5.60;99.90
37984;DHT22;64625;50.882;4.376;2022-12-07T05:03:51;5.60;99.90
37984;DHT22;64625;50.882;4.376;2022-12-07T05:06:16;5.60;99.90
37984;DHT22;64625;50.882;4.376;2022-12-07T05:08:42;5.50;99.90
37984;DHT22;64625;50.882;4.376;2022-12-07T05:11:09;5.60;99.90
37984;DHT22;64625;50.882;4.376;2022-12-07T05:13:56;5.50;99.90
37984;DHT22;64625;50.882;4.376;2022-12-07T05:16:23;5.50;99.90
37984;DHT22;64625;50.882;4.376;2022-12-07T05:18:49;5.50;99.90
37984;DHT22;64625;50.882;4.376;2022-12-07T05:21:15;5.50;99.90
37984;DHT22;64625;50.882;4.376;2022-12-07T05:23:41;5.50;99.90
37984;DHT22;64625;50.882;4.376;2022-12-07T05:26:07;5.50;99.90
37984;DHT22;64625;50.882;4.376;2022-12-07T05:28:32;5.60;99.90
37984;DHT22;64625;50.882;4.376;2022-12-07T05:30:58;5.50;99.90
37984;DHT22;64625;50.882;4.376;2022-12-07T05:33:24;5.50;99.90
37984;DHT22;64625;50.882;4.376;2022-12-07T05:35:50;5.60;99.90
37984;DHT22;64625;50.882;4.376;2022-12-07T05:38:15;5.60;99.90
37984;DHT22;64625;50.882;4.376;2022-12-07T05:40:43;5.60;99.90
37984;DHT22;64625;50.882;4.376;2022-12-07T05:43:10;5.60;99.90
37984;DHT22;64625;50.882;4.376;2022-12-07T05:45:36;5.60;99.90
37984;DHT22;64625;50.882;4.376;2022-12-07T05:48:02;5.60;99.90
37984;DHT22;64625;50.882;4.376;2022-12-07T05:50:28;5.60;99.90
37984;DHT22;64625;50.882;4.376;2022-12-07T05:52:54;5.60;99.90
37984;DHT22;64625;50.882;4.376;2022-12-07T05:55:20;5.60;99.90
37984;DHT22;64625;50.882;4.376;2022-12-07T05:57:46;5.60;99.90
37984;DHT22;64625;50.882;4.376;2022-12-07T06:00:30;5.60;99.90
37984;DHT22;64625;50.882;4.376;2022-12-07T06:02:56;5.60;99.90
37984;DHT22;64625;50.882;4.376;2022-12-07T06:05:23;5.60;99.90
37984;DHT22;64625;50.882;4.376;2022-12-07T06:07:49;5.60;99.90
37984;DHT22;64625;50.882;4.376;2022-12-07T06:10:14;5.60;99.90
37984;DHT22;64625;50.882;4.376;2022-12-07T06:12:40;5.60;99.90
37984;DHT22;64625;50.882;4.376;2022-12-07T06:15:12;5.60;99.90
37984;DHT22;64625;50.882;4.376;2022-12-07T06:17:39;5.60;99.90
37984;DHT22;64625;50.882;4.376;2022-12-07T06:20:05;5.60;99.90
37984;DHT22;64625;50.882;4.376;2022-12-07T06:22:34;5.70;99.90
37984;DHT22;64625;50.882;4.376;2022-12-07T06:25:00;5.60;99.90
37984;DHT22;64625;50.882;4.376;2022-12-07T06:27:27;5.70;99.90
37984;DHT22;64625;50.882;4.376;2022-12-07T06:29:52;5.70;99.90
37984;DHT22;64625;50.882;4.376;2022-12-07T06:32:18;5.60;99.90
37984;DHT22;64625;50.882;4.376;2022-12-07T06:34:44;5.60;99.90
37984;DHT22;64625;50.882;4.376;2022-12-07T06:37:10;5.60;99.90
37984;DHT22;64625;50.882;4.376;2022-12-07T06:39:35;5.60;99.90
37984;DHT22;64625;50.882;4.376;2022-12-07T06:42:01;5.60;99.90
37984;DHT22;64625;50.882;4.376;2022-12-07T06:44:27;5.60;99.90
37984;DHT22;64625;50.882;4.376;2022-12-07T06:46:53;5.70;99.90
37984;DHT22;64625;50.882;4.376;2022-12-07T06:49:19;5.60;99.90
37984;DHT22;64625;50.882;4.376;2022-12-07T06:51:45;5.70;99.90
37984;DHT22;64625;50.882;4.376;2022-12-07T06:54:12;5.70;99.90
37984;DHT22;64625;50.882;4.376;2022-12-07T06:56:39;5.70;99.90
37984;DHT22;64625;50.882;4.376;2022-12-07T06:59:05;5.70;99.90
37984;DHT22;64625;50.882;4.376;2022-12-07T07:01:32;5.70;99.90
37984;DHT22;64625;50.882;4.376;2022-12-07T07:03:58;5.70;99.90
37984;DHT22;64625;50.882;4.376;2022-12-07T07:06:24;5.70;99.90
37984;DHT22;64625;50.882;4.376;2022-12-07T07:08:50;5.70;99.90
37984;DHT22;64625;50.882;4.376;2022-12-07T07:11:16;5.70;99.90
37984;DHT22;64625;50.882;4.376;2022-12-07T07:13:42;5.70;99.90
37984;DHT22;64625;50.882;4.376;2022-12-07T07:16:08;5.70;99.90
37984;DHT22;64625;50.882;4.376;2022-12-07T07:18:34;5.70;99.90
37984;DHT22;64625;50.882;4.376;2022-12-07T07:21:00;5.70;99.90
37984;DHT22;64625;50.882;4.376;2022-12-07T07:23:26;5.70;99.90
37984;DHT22;64625;50.882;4.376;2022-12-07T07:25:52;5.70;99.90
37984;DHT22;64625;50.882;4.376;2022-12-07T07:28:18;5.70;99.90
37984;DHT22;64625;50.882;4.376;2022-12-07T07:30:45;5.70;99.90
37984;DHT22;64625;50.882;4.376;2022-12-07T07:33:11;5.70;99.90
37984;DHT22;64625;50.882;4.376;2022-12-07T07:35:37;5.70;99.90
37984;DHT22;64625;50.882;4.376;2022-12-07T07:38:04;5.70;99.90
37984;DHT22;64625;50.882;4.376;2022-12-07T07:40:30;5.70;99.90
37984;DHT22;64625;50.882;4.376;2022-12-07T07:42:57;5.60;99.90
37984;DHT22;64625;50.882;4.376;2022-12-07T07:45:24;5.60;99.90
37984;DHT22;64625;50.882;4.376;2022-12-07T07:47:51;5.60;99.90
37984;DHT22;64625;50.882;4.376;2022-12-07T07:50:18;5.60;99.90
37984;DHT22;64625;50.882;4.376;2022-12-07T07:52:44;5.60;99.90
37984;DHT22;64625;50.882;4.376;2022-12-07T07:55:11;5.60;99.90
37984;DHT22;64625;50.882;4.376;2022-12-07T07:57:38;5.60;99.90
37984;DHT22;64625;50.882;4.376;2022-12-07T08:00:06;5.60;99.90
37984;DHT22;64625;50.882;4.376;2022-12-07T08:02:32;5.60;99.90
37984;DHT22;64625;50.882;4.376;2022-12-07T08:04:58;5.60;99.90
37984;DHT22;64625;50.882;4.376;2022-12-07T08:07:24;5.60;99.90
37984;DHT22;64625;50.882;4.376;2022-12-07T08:09:53;5.60;99.90
37984;DHT22;64625;50.882;4.376;2022-12-07T08:12:19;5.60;99.90
37984;DHT22;64625;50.882;4.376;2022-12-07T08:14:45;5.60;99.90
37984;DHT22;64625;50.882;4.376;2022-12-07T08:17:11;5.60;99.90
37984;DHT22;64625;50.882;4.376;2022-12-07T08:19:38;5.60;99.90
37984;DHT22;64625;50.882;4.376;2022-12-07T08:22:04;5.60;99.90
37984;DHT22;64625;50.882;4.376;2022-12-07T08:24:30;5.60;99.90
37984;DHT22;64625;50.882;4.376;2022-12-07T08:26:56;5.50;99.90
37984;DHT22;64625;50.882;4.376;2022-12-07T08:29:21;5.50;99.90
37984;DHT22;64625;50.882;4.376;2022-12-07T08:31:47;5.50;99.90
37984;DHT22;64625;50.882;4.376;2022-12-07T08:34:13;5.50;99.90
37984;DHT22;64625;50.882;4.376;2022-12-07T08:36:39;5.50;99.90
37984;DHT22;64625;50.882;4.376;2022-12-07T08:39:05;5.50;99.90
37984;DHT22;64625;50.882;4.376;2022-12-07T08:41:32;5.50;99.90
37984;DHT22;64625;50.882;4.376;2022-12-07T08:43:58;5.50;99.90
37984;DHT22;64625;50.882;4.376;2022-12-07T08:46:30;5.50;99.90
37984;DHT22;64625;50.882;4.376;2022-12-07T08:49:02;5.50;99.90
37984;DHT22;64625;50.882;4.376;2022-12-07T08:51:29;5.60;99.90
37984;DHT22;64625;50.882;4.376;2022-12-07T08:53:56;5.60;99.90
37984;DHT22;64625;50.882;4.376;2022-12-07T08:56:24;5.60;99.90
37984;DHT22;64625;50.882;4.376;2022-12-07T08:58:50;5.60;99.90
37984;DHT22;64625;50.882;4.376;2022-12-07T09:01:16;5.70;99.90
37984;DHT22;64625;50.882;4.376;2022-12-07T09:03:42;5.70;99.90
37984;DHT22;64625;50.882;4.376;2022-12-07T09:06:07;5.80;99.90
37984;DHT22;64625;50.882;4.376;2022-12-07T09:08:38;5.80;99.90
37984;DHT22;64625;50.882;4.376;2022-12-07T09:11:05;5.90;99.90
37984;DHT22;64625;50.882;4.376;2022-12-07T09:13:31;5.90;99.90
37984;DHT22;64625;50.882;4.376;2022-12-07T09:15:56;6.00;99.90
37984;DHT22;64625;50.882;4.376;2022-12-07T09:18:22;6.00;99.90
37984;DHT22;64625;50.882;4.376;2022-12-07T09:20:50;6.00;99.90
37984;DHT22;64625;50.882;4.376;2022-12-07T09:23:15;6.10;99.90
37984;DHT22;64625;50.882;4.376;2022-12-07T09:25:41;6.10;99.90
37984;DHT22;64625;50.882;4.376;2022-12-07T09:28:07;6.10;99.90
37984;DHT22;64625;50.882;4.376;2022-12-07T09:30:34;6.10;99.90
37984;DHT22;64625;50.882;4.376;2022-12-07T09:33:00;6.20;99.90
37984;DHT22;64625;50.882;4.376;2022-12-07T09:35:26;6.30;99.90
37984;DHT22;64625;50.882;4.376;2022-12-07T09:37:53;6.30;99.90
37984;DHT22;64625;50.882;4.376;2022-12-07T09:40:21;6.30;99.90
37984;DHT22;64625;50.882;4.376;2022-12-07T09:42:53;6.30;99.90
37984;DHT22;64625;50.882;4.376;2022-12-07T09:45:34;6.40;99.90
37984;DHT22;64625;50.882;4.376;2022-12-07T09:48:03;6.40;99.90
37984;DHT22;64625;50.882;4.376;2022-12-07T09:50:29;6.40;99.90
37984;DHT22;64625;50.882;4.376;2022-12-07T09:53:09;6.40;99.90
37984;DHT22;64625;50.882;4.376;2022-12-07T09:55:36;6.40;99.90
37984;DHT22;64625;50.882;4.376;2022-12-07T09:58:03;6.50;99.90
37984;DHT22;64625;50.882;4.376;2022-12-07T10:00:29;6.50;99.90
37984;DHT22;64625;50.882;4.376;2022-12-07T10:03:00;6.50;99.90
37984;DHT22;64625;50.882;4.376;2022-12-07T10:05:31;6.50;99.90
37984;DHT22;64625;50.882;4.376;2022-12-07T10:07:58;6.60;99.90
37984;DHT22;64625;50.882;4.376;2022-12-07T10:10:32;6.60;99.90
37984;DHT22;64625;50.882;4.376;2022-12-07T10:13:01;6.70;99.90
37984;DHT22;64625;50.882;4.376;2022-12-07T10:23:35;6.80;99.90
37984;DHT22;64625;50.882;4.376;2022-12-07T10:28:57;6.90;99.90
37984;DHT22;64625;50.882;4.376;2022-12-07T10:31:24;6.90;99.90
37984;DHT22;64625;50.882;4.376;2022-12-07T10:34:00;7.00;99.90
37984;DHT22;64625;50.882;4.376;2022-12-07T10:36:37;7.00;99.90
37984;DHT22;64625;50.882;4.376;2022-12-07T10:39:13;7.00;99.90
37984;DHT22;64625;50.882;4.376;2022-12-07T10:41:59;7.00;99.90
37984;DHT22;64625;50.882;4.376;2022-12-07T10:44:33;7.00;99.90
37984;DHT22;64625;50.882;4.376;2022-12-07T10:47:18;7.00;99.90
37984;DHT22;64625;50.882;4.376;2022-12-07T10:52:45;7.00;99.90
37984;DHT22;64625;50.882;4.376;2022-12-07T10:55:26;7.00;99.90
37984;DHT22;64625;50.882;4.376;2022-12-07T11:00:45;7.00;99.90
37984;DHT22;64625;50.882;4.376;2022-12-07T11:11:42;7.10;99.90
37984;DHT22;64625;50.882;4.376;2022-12-07T11:17:00;7.20;99.90
37984;DHT22;64625;50.882;4.376;2022-12-07T11:22:57;7.20;99.90
37984;DHT22;64625;50.882;4.376;2022-12-07T11:28:28;7.20;99.90
37984;DHT22;64625;50.882;4.376;2022-12-07T11:33:46;7.20;99.90
37984;DHT22;64625;50.882;4.376;2022-12-07T11:41:43;7.20;99.90
37984;DHT22;64625;50.882;4.376;2022-12-07T11:51:52;7.40;99.90
37984;DHT22;64625;50.882;4.376;2022-12-07T11:54:28;7.50;99.90
37984;DHT22;64625;50.882;4.376;2022-12-07T11:57:03;7.50;99.90
37984;DHT22;64625;50.882;4.376;2022-12-07T11:59:39;7.60;99.90
37984;DHT22;64625;50.882;4.376;2022-12-07T12:02:32;7.70;99.90
37984;DHT22;64625;50.882;4.376;2022-12-07T12:05:13;7.80;99.90
37984;DHT22;64625;50.882;4.376;2022-12-07T12:07:42;7.80;99.90
37984;DHT22;64625;50.882;4.376;2022-12-07T12:12:58;7.90;99.90
37984;DHT22;64625;50.882;4.376;2022-12-07T12:15:47;7.90;99.90
37984;DHT22;64625;50.882;4.376;2022-12-07T12:21:06;8.00;99.90
37984;DHT22;64625;50.882;4.376;2022-12-07T12:23:54;8.00;99.90
37984;DHT22;64625;50.882;4.376;2022-12-07T12:26:27;8.00;99.90
37984;DHT22;64625;50.882;4.376;2022-12-07T12:29:17;8.00;99.90
37984;DHT22;64625;50.882;4.376;2022-12-07T12:31:48;8.00;99.90
37984;DHT22;64625;50.882;4.376;2022-12-07T12:36:56;8.10;99.90
37984;DHT22;64625;50.882;4.376;2022-12-07T12:39:23;8.10;99.90
37984;DHT22;64625;50.882;4.376;2022-12-07T12:47:02;8.20;99.90
37984;DHT22;64625;50.882;4.376;2022-12-07T12:52:49;8.30;99.90
37984;DHT22;64625;50.882;4.376;2022-12-07T12:55:19;8.30;99.90
37984;DHT22;64625;50.882;4.376;2022-12-07T12:57:56;8.30;99.90
37984;DHT22;64625;50.882;4.376;2022-12-07T13:00:33;8.40;99.90
37984;DHT22;64625;50.882;4.376;2022-12-07T13:03:00;8.40;99.90
37984;DHT22;64625;50.882;4.376;2022-12-07T13:05:30;8.40;99.90
37984;DHT22;64625;50.882;4.376;2022-12-07T13:08:13;8.50;99.90
37984;DHT22;64625;50.882;4.376;2022-12-07T13:10:43;8.50;99.90
37984;DHT22;64625;50.882;4.376;2022-12-07T13:20:57;8.60;99.90
37984;DHT22;64625;50.882;4.376;2022-12-07T13:34:05;8.70;99.90
37984;DHT22;64625;50.882;4.376;2022-12-07T13:36:51;8.70;99.90
37984;DHT22;64625;50.882;4.376;2022-12-07T13:39:25;8.70;99.90
37984;DHT22;64625;50.882;4.376;2022-12-07T13:42:06;8.70;99.90
37984;DHT22;64625;50.882;4.376;2022-12-07T13:44:34;8.70;99.90
37984;DHT22;64625;50.882;4.376;2022-12-07T13:47:17;8.80;99.90
37984;DHT22;64625;50.882;4.376;2022-12-07T13:49:51;8.80;99.90
37984;DHT22;64625;50.882;4.376;2022-12-07T13:52:22;8.70;99.90
37984;DHT22;64625;50.882;4.376;2022-12-07T13:55:08;8.80;99.90
37984;DHT22;64625;50.882;4.376;2022-12-07T13:57:35;8.80;99.90
37984;DHT22;64625;50.882;4.376;2022-12-07T14:00:05;8.80;99.90
37984;DHT22;64625;50.882;4.376;2022-12-07T14:02:33;8.80;99.90
37984;DHT22;64625;50.882;4.376;2022-12-07T14:05:26;8.80;99.90
37984;DHT22;64625;50.882;4.376;2022-12-07T14:10:31;8.70;99.90
37984;DHT22;64625;50.882;4.376;2022-12-07T14:13:03;8.60;99.90
37984;DHT22;64625;50.882;4.376;2022-12-07T14:15:34;8.50;99.90
37984;DHT22;64625;50.882;4.376;2022-12-07T14:18:02;8.40;99.90
37984;DHT22;64625;50.882;4.376;2022-12-07T14:20:34;8.40;99.90
37984;DHT22;64625;50.882;4.376;2022-12-07T14:22:59;8.20;99.90
37984;DHT22;64625;50.882;4.376;2022-12-07T14:25:49;8.20;99.90
37984;DHT22;64625;50.882;4.376;2022-12-07T14:28:33;8.10;99.90
37984;DHT22;64625;50.882;4.376;2022-12-07T14:31:01;8.10;99.90
37984;DHT22;64625;50.882;4.376;2022-12-07T14:33:28;8.00;99.90
37984;DHT22;64625;50.882;4.376;2022-12-07T14:35:54;8.00;99.90
37984;DHT22;64625;50.882;4.376;2022-12-07T14:38:24;8.00;99.90
37984;DHT22;64625;50.882;4.376;2022-12-07T14:40:51;8.00;99.90
37984;DHT22;64625;50.882;4.376;2022-12-07T14:43:18;8.00;99.90
37984;DHT22;64625;50.882;4.376;2022-12-07T14:45:45;7.90;99.90
37984;DHT22;64625;50.882;4.376;2022-12-07T14:48:13;7.90;99.90
37984;DHT22;64625;50.882;4.376;2022-12-07T14:50:44;7.90;99.90
37984;DHT22;64625;50.882;4.376;2022-12-07T14:53:16;7.90;99.90
37984;DHT22;64625;50.882;4.376;2022-12-07T14:55:42;7.80;99.90
37984;DHT22;64625;50.882;4.376;2022-12-07T14:58:15;7.80;99.90
37984;DHT22;64625;50.882;4.376;2022-12-07T15:00:41;7.80;99.90
37984;DHT22;64625;50.882;4.376;2022-12-07T15:03:07;7.80;99.90
37984;DHT22;64625;50.882;4.376;2022-12-07T15:05:33;7.80;99.90
37984;DHT22;64625;50.882;4.376;2022-12-07T15:08:00;7.70;99.90
37984;DHT22;64625;50.882;4.376;2022-12-07T15:10:28;7.70;99.90
37984;DHT22;64625;50.882;4.376;2022-12-07T15:12:59;7.70;99.90
37984;DHT22;64625;50.882;4.376;2022-12-07T15:15:45;7.70;99.90
37984;DHT22;64625;50.882;4.376;2022-12-07T15:18:11;7.70;99.90
37984;DHT22;64625;50.882;4.376;2022-12-07T15:20:37;7.60;99.90
37984;DHT22;64625;50.882;4.376;2022-12-07T15:23:03;7.60;99.90
37984;DHT22;64625;50.882;4.376;2022-12-07T15:25:29;7.60;99.90
37984;DHT22;64625;50.882;4.376;2022-12-07T15:27:55;7.60;99.90
37984;DHT22;64625;50.882;4.376;2022-12-07T15:30:24;7.60;99.90
37984;DHT22;64625;50.882;4.376;2022-12-07T15:32:51;7.60;99.90
37984;DHT22;64625;50.882;4.376;2022-12-07T15:35:18;7.60;99.90
37984;DHT22;64625;50.882;4.376;2022-12-07T15:37:46;7.60;99.90
37984;DHT22;64625;50.882;4.376;2022-12-07T15:40:12;7.60;99.90
37984;DHT22;64625;50.882;4.376;2022-12-07T15:42:39;7.60;99.90
37984;DHT22;64625;50.882;4.376;2022-12-07T15:45:06;7.50;99.90
37984;DHT22;64625;50.882;4.376;2022-12-07T15:47:37;7.50;99.90
37984;DHT22;64625;50.882;4.376;2022-12-07T15:50:05;7.50;99.90
37984;DHT22;64625;50.882;4.376;2022-12-07T15:52:32;7.50;99.90
37984;DHT22;64625;50.882;4.376;2022-12-07T15:54:58;7.50;99.90
37984;DHT22;64625;50.882;4.376;2022-12-07T15:57:26;7.40;99.90
37984;DHT22;64625;50.882;4.376;2022-12-07T15:59:52;7.40;99.90
37984;DHT22;64625;50.882;4.376;2022-12-07T16:02:19;7.40;99.90
37984;DHT22;64625;50.882;4.376;2022-12-07T16:04:45;7.40;99.90
37984;DHT22;64625;50.882;4.376;2022-12-07T16:07:11;7.30;99.90
37984;DHT22;64625;50.882;4.376;2022-12-07T16:09:39;7.30;99.90
37984;DHT22;64625;50.882;4.376;2022-12-07T16:12:08;7.30;99.90
37984;DHT22;64625;50.882;4.376;2022-12-07T16:14:34;7.30;99.90
37984;DHT22;64625;50.882;4.376;2022-12-07T16:17:00;7.30;99.90
37984;DHT22;64625;50.882;4.376;2022-12-07T16:19:25;7.30;99.90
37984;DHT22;64625;50.882;4.376;2022-12-07T16:21:51;7.30;99.90
37984;DHT22;64625;50.882;4.376;2022-12-07T16:24:17;7.30;99.90
37984;DHT22;64625;50.882;4.376;2022-12-07T16:26:44;7.20;99.90
37984;DHT22;64625;50.882;4.376;2022-12-07T16:29:13;7.20;99.90
37984;DHT22;64625;50.882;4.376;2022-12-07T16:31:39;7.20;99.90
37984;DHT22;64625;50.882;4.376;2022-12-07T16:34:08;7.20;99.90
37984;DHT22;64625;50.882;4.376;2022-12-07T16:36:34;7.20;99.90
37984;DHT22;64625;50.882;4.376;2022-12-07T16:39:00;7.20;99.90
37984;DHT22;64625;50.882;4.376;2022-12-07T16:41:26;7.20;99.90
37984;DHT22;64625;50.882;4.376;2022-12-07T16:43:52;7.20;99.90
37984;DHT22;64625;50.882;4.376;2022-12-07T16:46:18;7.20;99.90
37984;DHT22;64625;50.882;4.376;2022-12-07T16:48:44;7.20;99.90
37984;DHT22;64625;50.882;4.376;2022-12-07T16:51:13;7.20;99.90
37984;DHT22;64625;50.882;4.376;2022-12-07T16:53:41;7.20;99.90
37984;DHT22;64625;50.882;4.376;2022-12-07T16:56:15;7.20;99.90
37984;DHT22;64625;50.882;4.376;2022-12-07T16:58:43;7.20;99.90
37984;DHT22;64625;50.882;4.376;2022-12-07T17:01:18;7.20;99.90
37984;DHT22;64625;50.882;4.376;2022-12-07T17:03:45;7.20;99.90
37984;DHT22;64625;50.882;4.376;2022-12-07T17:06:23;7.10;99.90
37984;DHT22;64625;50.882;4.376;2022-12-07T17:08:52;7.10;99.90
37984;DHT22;64625;50.882;4.376;2022-12-07T17:11:20;7.10;99.90
37984;DHT22;64625;50.882;4.376;2022-12-07T17:13:47;7.10;99.90
37984;DHT22;64625;50.882;4.376;2022-12-07T17:16:31;7.10;99.90
37984;DHT22;64625;50.882;4.376;2022-12-07T17:18:58;7.10;99.90
37984;DHT22;64625;50.882;4.376;2022-12-07T17:21:25;7.10;99.90
37984;DHT22;64625;50.882;4.376;2022-12-07T17:23:50;7.10;99.90
37984;DHT22;64625;50.882;4.376;2022-12-07T17:26:23;7.10;99.90
37984;DHT22;64625;50.882;4.376;2022-12-07T17:28:52;7.10;99.90
37984;DHT22;64625;50.882;4.376;2022-12-07T17:31:20;7.00;99.90
37984;DHT22;64625;50.882;4.376;2022-12-07T17:33:46;7.00;99.90
37984;DHT22;64625;50.882;4.376;2022-12-07T17:36:17;7.00;99.90
37984;DHT22;64625;50.882;4.376;2022-12-07T17:38:43;7.00;99.90
37984;DHT22;64625;50.882;4.376;2022-12-07T17:41:18;7.10;99.90
37984;DHT22;64625;50.882;4.376;2022-12-07T17:44:09;7.10;99.90
37984;DHT22;64625;50.882;4.376;2022-12-07T17:46:36;7.00;99.90
37984;DHT22;64625;50.882;4.376;2022-12-07T17:49:02;7.00;99.90
37984;DHT22;64625;50.882;4.376;2022-12-07T17:51:28;7.00;99.90
37984;DHT22;64625;50.882;4.376;2022-12-07T17:54:13;7.00;99.90
37984;DHT22;64625;50.882;4.376;2022-12-07T17:56:40;7.00;99.90
37984;DHT22;64625;50.882;4.376;2022-12-07T17:59:06;7.00;99.90
37984;DHT22;64625;50.882;4.376;2022-12-07T18:01:32;7.00;99.90
37984;DHT22;64625;50.882;4.376;2022-12-07T18:03:58;7.00;99.90
37984;DHT22;64625;50.882;4.376;2022-12-07T18:06:24;7.00;99.90